createdAt,value
2022-12-03T14:04:41.378Z,78.30
2022-12-03T14:07:10.076Z,78.71
2022-12-03T14:09:44.899Z,77.86
2022-12-03T14:12:35.725Z,76.56
2022-12-03T14:15:10.169Z,77.26
2022-12-03T14:17:41.823Z,77.13
2022-12-03T14:20:14.713Z,76.70
2022-12-03T14:22:46.380Z,77.31
2022-12-03T14:25:19.928Z,76.79
2022-12-03T14:28:21.709Z,77.27
2022-12-03T14:30:54.130Z,76.54
2022-12-03T14:33:23.031Z,76.87
2022-12-03T14:35:56.871Z,77.17
2022-12-03T14:38:25.619Z,76.75
2022-12-03T14:40:54.202Z,76.71
2022-12-03T14:43:22.881Z,77.71
2022-12-03T14:45:52.119Z,76.88
2022-12-03T14:48:20.734Z,77.78
2022-12-03T14:50:49.469Z,77.55
2022-12-03T14:53:25.599Z,77.95
2022-12-03T14:55:58.476Z,77.42
2022-12-03T14:58:27.337Z,78.06
2022-12-03T15:00:55.993Z,77.65
2022-12-03T15:03:24.648Z,78.22
2022-12-03T15:05:53.343Z,77.71
2022-12-03T15:08:25.718Z,78.40
2022-12-03T15:11:33.257Z,78.30
2022-12-03T15:14:08.581Z,77.42
2022-12-03T15:16:37.327Z,78.58
2022-12-03T15:19:06.184Z,78.76
2022-12-03T15:21:37.773Z,79.27
2022-12-03T15:24:11.894Z,78.42
2022-12-03T15:26:41.985Z,78.64
2022-12-03T15:29:15.799Z,78.79
2022-12-03T15:31:49.277Z,78.59
2022-12-03T15:34:22.432Z,78.86
2022-12-03T15:37:09.651Z,78.52
2022-12-03T15:39:48.357Z,78.45
2022-12-03T15:42:49.807Z,77.92
2022-12-03T15:45:18.892Z,78.63
2022-12-03T15:47:47.599Z,78.16
2022-12-03T15:50:26.325Z,78.07
2022-12-03T15:53:00.963Z,77.31
2022-12-03T15:55:53.622Z,78.30
2022-12-03T15:58:22.515Z,77.98
2022-12-03T16:00:54.162Z,77.35
2022-12-03T16:03:23.043Z,76.98
2022-12-03T16:05:59.184Z,77.12
2022-12-03T16:08:28.160Z,77.57
2022-12-03T16:11:10.352Z,77.69
2022-12-03T16:13:42.294Z,77.67
2022-12-03T16:16:10.844Z,77.22
2022-12-03T16:18:42.082Z,77.10
2022-12-03T16:21:35.452Z,77.39
2022-12-03T16:24:09.439Z,76.97
2022-12-03T16:26:46.432Z,77.13
2022-12-03T16:29:15.078Z,77.41
2022-12-03T16:32:01.475Z,77.37
2022-12-03T16:34:36.426Z,77.10
2022-12-03T16:37:10.976Z,77.46
2022-12-03T16:39:40.024Z,77.66
2022-12-03T16:42:17.167Z,77.37
2022-12-03T16:47:58.599Z,78.03
2022-12-03T16:50:29.955Z,77.38
2022-12-03T16:52:58.991Z,77.85
2022-12-03T16:56:09.541Z,77.57
2022-12-03T16:58:55.864Z,77.60
2022-12-03T17:01:44.901Z,77.49
2022-12-03T17:04:13.616Z,77.67
2022-12-03T17:06:42.393Z,78.13
2022-12-03T17:09:11.067Z,78.03
2022-12-03T17:11:39.718Z,78.03
2022-12-03T17:14:10.373Z,78.46
2022-12-03T17:16:39.186Z,78.33
2022-12-03T17:19:08.096Z,78.41
2022-12-03T17:21:44.150Z,78.52
2022-12-03T17:24:27.624Z,78.45
2022-12-03T17:27:00.666Z,78.75
2022-12-03T17:29:34.693Z,78.35
2022-12-03T17:32:03.477Z,78.65
2022-12-03T17:34:32.160Z,78.81
2022-12-03T17:37:00.718Z,79.18
2022-12-03T17:39:29.308Z,78.60
2022-12-03T17:41:57.965Z,79.11
2022-12-03T17:44:26.623Z,78.35
2022-12-03T17:46:57.241Z,78.75
2022-12-03T17:49:31.307Z,78.16
2022-12-03T17:52:00.413Z,79.10
2022-12-03T17:54:43.480Z,78.71
2022-12-03T17:57:17.958Z,78.62
2022-12-03T17:59:46.531Z,78.96
2022-12-03T18:02:17.115Z,79.11
2022-12-03T18:04:45.795Z,78.07
2022-12-03T18:07:14.354Z,78.56
2022-12-03T18:09:42.964Z,78.97
2022-12-03T18:12:11.678Z,79.05
2022-12-03T18:14:40.291Z,79.15
2022-12-03T18:17:09.020Z,78.76
2022-12-03T18:19:39.515Z,79.36
2022-12-03T18:22:08.421Z,79.14
2022-12-03T18:24:37.268Z,78.58
2022-12-03T18:27:06.082Z,79.11
2022-12-03T18:29:34.724Z,78.77
2022-12-03T18:32:03.572Z,78.46
2022-12-03T18:34:32.361Z,79.36
2022-12-03T18:37:03.477Z,78.37
2022-12-03T18:39:36.146Z,79.06
2022-12-03T18:42:16.050Z,78.26
2022-12-03T18:44:49.649Z,79.04
2022-12-03T18:47:21.097Z,79.49
2022-12-03T18:49:50.212Z,79.75
2022-12-03T18:52:24.238Z,79.81
2022-12-03T18:54:53.785Z,79.65
2022-12-03T18:57:22.419Z,79.25
2022-12-03T18:59:51.056Z,80.12
2022-12-03T19:05:12.031Z,79.75
2022-12-03T19:07:42.689Z,79.91
2022-12-03T19:10:13.631Z,79.25
2022-12-03T19:12:57.362Z,80.35
2022-12-03T19:15:29.079Z,80.01
2022-12-03T19:17:57.759Z,80.00
2022-12-03T19:20:29.224Z,79.14
2022-12-03T19:23:01.765Z,79.14
2022-12-03T19:25:33.202Z,79.63
2022-12-03T19:28:04.652Z,79.89
2022-12-03T19:30:33.332Z,79.48
2022-12-03T19:33:04.259Z,78.97
2022-12-03T19:35:33.103Z,79.58
2022-12-03T19:38:04.908Z,79.02
2022-12-03T19:40:33.564Z,78.94
2022-12-03T19:43:05.255Z,79.12
2022-12-03T19:45:33.890Z,79.27
2022-12-03T19:48:02.630Z,78.96
2022-12-03T19:50:32.041Z,79.77
2022-12-03T19:53:00.676Z,79.47
2022-12-03T19:55:31.494Z,79.71
2022-12-03T19:58:02.899Z,78.99
2022-12-03T20:00:35.792Z,79.56
2022-12-03T20:03:07.664Z,79.41
2022-12-03T20:05:44.689Z,78.96
2022-12-03T20:08:13.347Z,79.83
2022-12-03T20:10:46.767Z,79.39
2022-12-03T20:13:21.558Z,79.07
2022-12-03T20:15:52.779Z,79.09
2022-12-03T20:18:21.508Z,78.73
2022-12-03T20:20:52.243Z,79.11
2022-12-03T20:23:20.960Z,79.53
2022-12-03T20:25:57.798Z,78.42
2022-12-03T20:28:27.952Z,78.65
2022-12-03T20:31:06.561Z,78.62
2022-12-03T20:33:38.174Z,79.35
2022-12-03T20:36:08.163Z,78.75
2022-12-03T20:38:37.229Z,78.76
2022-12-03T20:41:14.571Z,78.50
2022-12-03T20:43:43.751Z,78.74
2022-12-03T20:46:15.203Z,78.96
2022-12-03T20:48:47.498Z,78.51
2022-12-03T20:51:22.627Z,78.10
2022-12-03T20:53:54.161Z,78.98
2022-12-03T20:56:46.798Z,79.02
2022-12-03T20:59:19.197Z,78.67
2022-12-03T21:01:49.401Z,78.66
2022-12-03T21:04:18.742Z,78.54
2022-12-03T21:06:47.980Z,78.39
2022-12-03T21:09:19.473Z,78.67
2022-12-03T21:11:53.075Z,78.35
2022-12-03T21:14:21.746Z,78.86
2022-12-03T21:17:08.889Z,78.48
2022-12-03T21:19:38.999Z,78.45
2022-12-03T21:22:08.578Z,78.88
2022-12-03T21:24:37.708Z,78.35
2022-12-03T21:27:14.617Z,77.53
2022-12-03T21:29:46.976Z,78.17
2022-12-03T21:32:15.743Z,78.04
2022-12-03T21:34:44.495Z,77.65
2022-12-03T21:37:15.562Z,78.60
2022-12-03T21:39:44.160Z,78.50
2022-12-03T21:42:19.349Z,78.41
2022-12-03T21:45:04.110Z,78.79
2022-12-03T21:47:37.213Z,78.24
2022-12-03T21:50:10.456Z,77.84
2022-12-03T21:52:39.279Z,78.22
2022-12-03T21:55:09.138Z,77.93
2022-12-03T21:57:42.925Z,78.29
2022-12-03T22:00:13.682Z,78.47
2022-12-03T22:02:42.538Z,77.95
2022-12-03T22:05:12.852Z,78.65
2022-12-03T22:07:42.401Z,78.44
2022-12-03T22:10:13.321Z,78.05
2022-12-03T22:12:44.143Z,78.47
2022-12-03T22:15:18.726Z,78.06
2022-12-03T22:17:48.921Z,77.99
2022-12-03T22:20:18.922Z,77.94
2022-12-03T22:22:47.736Z,78.27
2022-12-03T22:25:16.651Z,78.06
2022-12-03T22:27:48.680Z,78.08
2022-12-03T22:30:17.692Z,78.18
2022-12-03T22:32:46.619Z,77.97
2022-12-03T22:35:15.474Z,77.61
2022-12-03T22:37:44.123Z,78.18
2022-12-03T22:40:13.756Z,78.23
2022-12-03T22:42:47.760Z,78.25
2022-12-03T22:45:21.389Z,78.25
2022-12-03T22:47:50.219Z,78.31
2022-12-03T22:50:19.278Z,77.93
2022-12-03T22:52:47.883Z,77.60
2022-12-03T22:55:16.862Z,78.25
2022-12-03T22:57:45.459Z,78.35
2022-12-03T23:00:17.551Z,78.76
2022-12-03T23:02:48.215Z,77.95
2022-12-03T23:05:17.222Z,78.72
2022-12-03T23:07:45.935Z,78.61
2022-12-03T23:10:14.637Z,78.23
2022-12-03T23:12:43.464Z,78.25
2022-12-03T23:15:13.037Z,78.21
2022-12-03T23:17:42.630Z,78.18
2022-12-03T23:20:15.084Z,78.35
2022-12-03T23:22:43.768Z,78.42
2022-12-03T23:25:13.665Z,78.09
2022-12-03T23:27:42.511Z,78.52
2022-12-03T23:30:14.104Z,78.67
2022-12-03T23:32:43.768Z,78.24
2022-12-03T23:35:14.631Z,78.64
2022-12-03T23:37:45.228Z,78.70
2022-12-03T23:40:15.779Z,78.22
2022-12-03T23:42:44.492Z,78.66
2022-12-03T23:45:13.438Z,78.15
2022-12-03T23:47:42.178Z,79.04
2022-12-03T23:50:13.942Z,78.87
2022-12-03T23:52:42.700Z,78.95
2022-12-03T23:55:12.087Z,78.49
2022-12-03T23:57:40.775Z,78.85
